Time;durP1;ratioP1;P1;durP2;ratioP2;P2;SDS_P1;SDS_P2;PMS_P1;PMS_P2;Temp;Humidity;BMP_temperature;BMP_pressure;BME280_temperature;BME280_humidity;BME280_pressure;Samples;Min_cycle;Max_cycle;Signal;HPM_P1;HPM_P2
2023/06/23 00:00:44;;;;;;;11.68;7.03;;;19.30;85.20;;;;;;5030682;28;20623;-45
2023/06/23 00:03:15;;;;;;;7.03;6.07;;;19.30;84.90;;;;;;5027125;28;20517;-45
2023/06/23 00:05:47;;;;;;;7.30;6.05;;;19.30;85.00;;;;;;5039034;28;20045;-45
2023/06/23 00:08:14;;;;;;;7.43;6.25;;;19.30;84.90;;;;;;5031395;28;20069;-45
2023/06/23 00:10:41;;;;;;;7.70;6.68;;;19.30;84.90;;;;;;5030946;28;20068;-45
2023/06/23 00:13:09;;;;;;;8.27;5.75;;;19.30;84.90;;;;;;5027814;28;20116;-46
2023/06/23 00:15:38;;;;;;;8.38;6.45;;;19.30;84.80;;;;;;5030287;28;20045;-48
2023/06/23 00:18:10;;;;;;;8.05;6.22;;;19.30;84.70;;;;;;5031561;28;20108;-45
2023/06/23 00:20:36;;;;;;;9.10;6.43;;;19.20;84.80;;;;;;5024741;28;20105;-46
2023/06/23 00:23:03;;;;;;;9.55;6.47;;;19.30;84.80;;;;;;5028194;28;20045;-46
2023/06/23 00:25:30;;;;;;;6.93;6.05;;;19.20;84.60;;;;;;5028445;28;20601;-47
2023/06/23 00:27:59;;;;;;;8.52;5.90;;;19.20;84.80;;;;;;5030577;28;20037;-45
2023/06/23 00:30:29;;;;;;;9.32;6.75;;;19.20;84.80;;;;;;5012247;28;20037;-44
2023/06/23 00:32:55;;;;;;;7.75;6.53;;;19.20;84.60;;;;;;5028429;28;20129;-46
2023/06/23 00:35:25;;;;;;;6.97;6.15;;;19.20;84.60;;;;;;5029065;28;20033;-46
2023/06/23 00:37:53;;;;;;;7.43;6.68;;;19.10;84.50;;;;;;5030357;28;20454;-47
2023/06/23 00:40:24;;;;;;;7.30;6.55;;;19.10;84.30;;;;;;5012703;28;20137;-46
2023/06/23 00:42:53;;;;;;;10.65;6.10;;;19.10;84.40;;;;;;5026129;28;20076;-45
2023/06/23 00:45:23;;;;;;;7.00;6.30;;;19.10;84.60;;;;;;5018355;28;20144;-45
2023/06/23 00:47:51;;;;;;;8.20;6.32;;;19.10;84.50;;;;;;5012789;28;20038;-46
2023/06/23 00:50:22;;;;;;;9.98;7.10;;;19.00;84.50;;;;;;5008908;28;20042;-46
2023/06/23 00:52:52;;;;;;;10.02;6.82;;;19.00;84.50;;;;;;5026729;28;20061;-48
2023/06/23 00:55:21;;;;;;;6.95;6.28;;;19.00;84.50;;;;;;5021225;28;20030;-44
2023/06/23 00:57:51;;;;;;;7.35;6.40;;;18.90;84.30;;;;;;5028670;28;20083;-45
2023/06/23 01:00:29;;;;;;;9.18;6.85;;;18.90;84.40;;;;;;5029991;28;20520;-45
2023/06/23 01:02:59;;;;;;;6.88;6.18;;;18.90;84.30;;;;;;5027614;28;20057;-48
2023/06/23 01:05:36;;;;;;;7.30;6.35;;;18.90;84.30;;;;;;5012231;28;20498;-45
2023/06/23 01:08:19;;;;;;;7.50;6.18;;;18.90;84.40;;;;;;5012083;28;20637;-46
2023/06/23 01:11:18;;;;;;;8.98;6.35;;;18.90;84.40;;;;;;5010758;28;20041;-47
2023/06/23 01:14:01;;;;;;;10.50;6.78;;;18.80;84.40;;;;;;5028093;28;20482;-44
2023/06/23 01:16:44;;;;;;;7.57;6.10;;;18.80;84.30;;;;;;5029427;28;20042;-46
2023/06/23 01:19:32;;;;;;;9.27;6.50;;;18.80;84.30;;;;;;5010828;28;20060;-46
2023/06/23 01:22:44;;;;;;;7.30;5.82;;;18.80;84.30;;;;;;5011237;28;20473;-44
2023/06/23 01:25:40;;;;;;;7.43;6.68;;;18.80;84.60;;;;;;5009199;28;20053;-46
2023/06/23 01:28:42;;;;;;;8.40;7.25;;;18.70;84.50;;;;;;5004665;28;20136;-46
2023/06/23 01:31:13;;;;;;;9.43;6.78;;;18.70;85.40;;;;;;5028876;28;20037;-45
2023/06/23 01:33:49;;;;;;;9.45;6.88;;;18.70;84.50;;;;;;5011481;28;20890;-46
2023/06/23 01:36:32;;;;;;;8.05;7.00;;;18.70;84.60;;;;;;5029372;28;20444;-44
2023/06/23 01:39:03;;;;;;;8.57;6.82;;;18.60;84.60;;;;;;5030266;28;20037;-45
2023/06/23 01:41:37;;;;;;;10.10;7.53;;;18.60;84.70;;;;;;5008767;28;20119;-45
2023/06/23 01:44:14;;;;;;;10.18;7.45;;;18.60;84.70;;;;;;5012418;28;20143;-44
2023/06/23 01:46:50;;;;;;;9.80;6.97;;;18.60;84.80;;;;;;5011251;28;20056;-46
2023/06/23 01:49:23;;;;;;;9.60;6.65;;;18.60;84.70;;;;;;4993785;28;20054;-45
2023/06/23 01:51:54;;;;;;;9.10;7.20;;;18.60;84.80;;;;;;5006823;28;20146;-47
2023/06/23 01:54:23;;;;;;;12.23;6.93;;;18.60;84.80;;;;;;5025632;28;20095;-45
2023/06/23 01:56:51;;;;;;;10.35;7.97;;;18.60;84.80;;;;;;5028931;28;20049;-44
2023/06/23 01:59:31;;;;;;;9.02;7.43;;;18.60;84.70;;;;;;5011577;28;20093;-45
2023/06/23 02:01:58;;;;;;;9.02;7.70;;;18.60;84.70;;;;;;5010902;28;20072;-44
2023/06/23 02:04:29;;;;;;;10.02;6.93;;;18.60;84.80;;;;;;5027588;28;20044;-45
2023/06/23 02:07:01;;;;;;;12.35;8.35;;;18.60;84.70;;;;;;5017454;28;20057;-45
2023/06/23 02:09:31;;;;;;;15.68;9.27;;;18.60;84.80;;;;;;5036063;28;20112;-46
2023/06/23 02:11:58;;;;;;;11.32;8.25;;;18.50;84.80;;;;;;5034027;28;20037;-48
2023/06/23 02:14:29;;;;;;;14.63;10.25;;;18.50;84.80;;;;;;5010091;28;20072;-45
2023/06/23 02:17:03;;;;;;;13.65;9.15;;;18.50;84.80;;;;;;5034517;28;20076;-44
2023/06/23 02:19:31;;;;;;;10.82;9.57;;;18.50;84.80;;;;;;5036315;28;20034;-49
2023/06/23 02:22:03;;;;;;;14.35;9.70;;;18.50;84.80;;;;;;5028729;28;20136;-48
2023/06/23 02:24:30;;;;;;;14.60;9.65;;;18.50;84.80;;;;;;5012518;28;20041;-45
2023/06/23 02:26:57;;;;;;;13.23;10.88;;;18.50;84.70;;;;;;5017637;28;20597;-45
2023/06/23 02:29:24;;;;;;;12.07;9.82;;;18.40;84.60;;;;;;5018691;28;20484;-46
2023/06/23 02:31:55;;;;;;;13.23;11.07;;;18.40;84.60;;;;;;5017410;28;20041;-45
2023/06/23 02:34:22;;;;;;;16.70;10.45;;;18.40;84.60;;;;;;5031911;28;20051;-49
2023/06/23 02:36:54;;;;;;;14.95;10.80;;;18.40;84.70;;;;;;5034969;28;20037;-47
2023/06/23 02:39:30;;;;;;;14.15;11.25;;;18.40;84.80;;;;;;5017584;28;20048;-44
2023/06/23 02:41:59;;;;;;;16.30;10.90;;;18.40;84.80;;;;;;5011811;28;20042;-48
2023/06/23 02:44:39;;;;;;;11.35;10.25;;;18.40;84.70;;;;;;5017550;28;20045;-46
2023/06/23 02:47:13;;;;;;;13.38;10.80;;;18.40;84.90;;;;;;5016730;28;20506;-45
2023/06/23 02:49:42;;;;;;;15.25;11.52;;;18.40;84.90;;;;;;5035883;28;20506;-43
2023/06/23 02:52:17;;;;;;;15.07;11.80;;;18.30;84.80;;;;;;5011128;28;20042;-47
2023/06/23 02:54:49;;;;;;;;;;;18.30;84.80;;;;;;5010354;28;20108;-46
2023/06/23 02:57:19;;;;;;;15.05;11.18;;;18.30;85.60;;;;;;5035615;28;19921;-45
2023/06/23 02:59:49;;;;;;;15.43;11.43;;;18.30;84.70;;;;;;5035865;28;20034;-47
2023/06/23 03:02:24;;;;;;;15.50;12.02;;;18.30;84.90;;;;;;5031267;28;20088;-46
2023/06/23 03:04:52;;;;;;;15.05;12.52;;;18.30;85.10;;;;;;5013990;28;20643;-46
2023/06/23 03:07:21;;;;;;;16.67;11.93;;;18.30;85.20;;;;;;5017978;28;20084;-45
2023/06/23 03:09:48;;;;;;;17.40;12.30;;;18.30;85.30;;;;;;5018013;28;20049;-45
2023/06/23 03:12:14;;;;;;;15.20;12.85;;;18.20;85.40;;;;;;5016915;28;20658;-46
2023/06/23 03:14:43;;;;;;;20.27;13.10;;;18.20;85.60;;;;;;5018109;28;20045;-43
2023/06/23 03:17:16;;;;;;;18.33;13.10;;;18.20;85.60;;;;;;5032387;28;20713;-46
2023/06/23 03:19:55;;;;;;;15.13;12.30;;;18.20;85.70;;;;;;5012023;28;20042;-44
2023/06/23 03:22:32;;;;;;;16.05;13.88;;;18.20;85.70;;;;;;5026327;28;20052;-44
2023/06/23 03:25:05;;;;;;;18.38;13.80;;;18.20;85.70;;;;;;5011389;28;20128;-46
2023/06/23 03:27:37;;;;;;;18.98;13.77;;;18.20;86.20;;;;;;5032725;28;20048;-45
2023/06/23 03:30:13;;;;;;;18.88;14.20;;;18.20;85.80;;;;;;5015576;28;20081;-44
2023/06/23 03:32:47;;;;;;;18.23;14.50;;;18.20;85.80;;;;;;5026590;28;20129;-45
2023/06/23 03:35:24;;;;;;;19.58;14.40;;;18.20;85.90;;;;;;5027516;28;20112;-44
2023/06/23 03:38:05;;;;;;;21.08;15.23;;;18.20;86.00;;;;;;5032241;28;20045;-44
2023/06/23 03:40:38;;;;;;;23.38;14.82;;;18.20;86.20;;;;;;5027702;28;20049;-46
2023/06/23 03:43:11;;;;;;;21.10;14.83;;;18.20;86.20;;;;;;5031838;28;20057;-49
2023/06/23 03:45:44;;;;;;;23.08;15.00;;;18.10;86.10;;;;;;5032102;28;20805;-47
2023/06/23 03:48:12;;;;;;;19.48;14.90;;;18.20;86.20;;;;;;5033202;28;20537;-46
2023/06/23 03:50:41;;;;;;;21.25;15.40;;;18.20;86.30;;;;;;5032328;28;20046;-45
2023/06/23 03:53:10;;;;;;;19.45;15.05;;;18.20;86.30;;;;;;5028861;28;20585;-45
2023/06/23 03:55:41;;;;;;;22.60;15.07;;;18.10;86.30;;;;;;5031718;28;20506;-47
2023/06/23 03:58:10;;;;;;;17.98;15.75;;;18.10;86.30;;;;;;5032243;28;20041;-44
2023/06/23 04:00:45;;;;;;;21.95;15.20;;;18.20;86.40;;;;;;5031830;28;20107;-43
2023/06/23 04:03:18;;;;;;;18.77;14.95;;;18.10;86.30;;;;;;5030297;28;20048;-45
2023/06/23 04:05:54;;;;;;;18.80;15.23;;;18.20;86.40;;;;;;5031394;28;20518;-46
2023/06/23 04:08:24;;;;;;;22.10;15.85;;;18.10;86.40;;;;;;5032219;28;20045;-44
2023/06/23 04:11:02;;;;;;;23.58;16.88;;;18.10;86.50;;;;;;5025321;28;20053;-46
2023/06/23 04:13:33;;;;;;;21.45;15.82;;;18.10;86.50;;;;;;5031081;28;20084;-44
2023/06/23 04:16:06;;;;;;;24.33;15.65;;;18.20;86.50;;;;;;5030533;28;20041;-48
2023/06/23 04:18:37;;;;;;;21.08;15.32;;;18.10;86.50;;;;;;5028216;28;20080;-46
2023/06/23 04:21:07;;;;;;;24.08;16.83;;;18.10;86.60;;;;;;5029811;28;20057;-44
2023/06/23 04:23:38;;;;;;;22.73;16.60;;;18.20;86.60;;;;;;5026004;28;20144;-44
2023/06/23 04:26:10;;;;;;;19.13;15.52;;;18.20;86.70;;;;;;5028230;28;20506;-44
2023/06/23 04:28:41;;;;;;;20.58;17.50;;;18.10;86.80;;;;;;5027543;28;20072;-47
2023/06/23 04:31:09;;;;;;;20.77;17.17;;;18.20;86.90;;;;;;5029343;28;20322;-46
2023/06/23 04:33:36;;;;;;;22.83;17.08;;;18.10;87.00;;;;;;5026850;28;20494;-44
2023/06/23 04:36:13;;;;;;;20.35;15.52;;;18.10;87.10;;;;;;5028283;28;20052;-48
2023/06/23 04:38:52;;;;;;;24.20;17.98;;;18.20;87.90;;;;;;5029960;28;20065;-48
2023/06/23 04:41:23;;;;;;;21.60;15.90;;;18.20;87.20;;;;;;5027907;28;20042;-47
2023/06/23 04:43:52;;;;;;;24.05;18.80;;;18.20;87.30;;;;;;5011697;28;20624;-45
2023/06/23 04:46:25;;;;;;;20.60;17.13;;;18.20;87.30;;;;;;5023832;28;20097;-45
2023/06/23 04:48:55;;;;;;;25.70;18.50;;;18.20;87.20;;;;;;5029620;28;20049;-45
2023/06/23 04:51:27;;;;;;;23.15;17.42;;;18.30;87.40;;;;;;5030857;28;20535;-46
2023/06/23 04:54:17;;;;;;;23.55;17.88;;;18.30;87.40;;;;;;5022130;28;20046;-45
2023/06/23 04:56:47;;;;;;;20.02;16.48;;;18.30;87.40;;;;;;5020281;28;20045;-45
2023/06/23 04:59:19;;;;;;;24.23;17.98;;;18.30;87.40;;;;;;5029825;28;20375;-43
2023/06/23 05:01:47;;;;;;;25.52;18.42;;;18.30;87.50;;;;;;5013623;28;20076;-47
2023/06/23 05:04:15;;;;;;;22.98;17.58;;;18.30;87.30;;;;;;5023772;28;20041;-45
2023/06/23 05:06:44;;;;;;;24.08;18.27;;;18.40;87.40;;;;;;5008496;28;20557;-50
2023/06/23 05:09:12;;;;;;;23.08;18.65;;;18.30;87.40;;;;;;5027249;28;20048;-47
2023/06/23 05:11:41;;;;;;;24.65;19.50;;;18.40;87.50;;;;;;5028934;28;20096;-51
2023/06/23 05:14:08;;;;;;;22.30;19.10;;;18.40;87.60;;;;;;5029226;28;20132;-48
2023/06/23 05:16:37;;;;;;;26.50;19.60;;;18.40;87.60;;;;;;5019288;28;20116;-47
2023/06/23 05:19:08;;;;;;;25.95;19.27;;;18.40;87.50;;;;;;5027295;28;20717;-46
2023/06/23 05:21:39;;;;;;;26.92;20.27;;;18.40;87.60;;;;;;5028855;28;20116;-47
2023/06/23 05:24:08;;;;;;;27.05;20.73;;;18.40;87.60;;;;;;5030952;28;20176;-51
2023/06/23 05:26:36;;;;;;;26.15;19.42;;;18.50;87.80;;;;;;5029714;28;20041;-50
2023/06/23 05:29:06;;;;;;;27.20;20.88;;;18.50;87.80;;;;;;5029219;28;20076;-49
2023/06/23 05:31:38;;;;;;;26.52;20.73;;;18.50;88.00;;;;;;5030616;28;20069;-50
2023/06/23 05:34:08;;;;;;;30.40;21.80;;;18.60;88.20;;;;;;5028841;28;20037;-51
2023/06/23 05:36:36;;;;;;;27.23;20.05;;;18.60;88.20;;;;;;5025809;28;20406;-50
2023/06/23 05:39:08;;;;;;;28.27;21.15;;;18.60;88.20;;;;;;5025897;28;20037;-50
2023/06/23 05:41:34;;;;;;;28.17;21.00;;;18.60;88.10;;;;;;5028748;28;20618;-47
2023/06/23 05:44:01;;;;;;;27.08;20.88;;;18.70;88.30;;;;;;5028637;28;20081;-50
2023/06/23 05:46:30;;;;;;;28.85;21.58;;;18.70;88.30;;;;;;5005484;28;20152;-50
2023/06/23 05:49:05;;;;;;;29.35;21.60;;;18.70;88.60;;;;;;5028485;28;20045;-48
2023/06/23 05:51:33;;;;;;;26.05;21.52;;;18.80;88.60;;;;;;5028651;28;20123;-45
2023/06/23 05:54:05;;;;;;;25.63;20.63;;;18.80;88.60;;;;;;5026938;28;20128;-46
2023/06/23 05:56:44;;;;;;;30.40;21.83;;;18.80;88.70;;;;;;5028742;28;20405;-46
2023/06/23 05:59:39;;;;;;;28.40;21.33;;;18.90;88.90;;;;;;5028883;28;20042;-51
2023/06/23 06:02:10;;;;;;;29.40;22.45;;;18.90;88.80;;;;;;5025641;28;20052;-49
2023/06/23 06:04:40;;;;;;;32.33;23.88;;;19.00;88.90;;;;;;5029029;28;20580;-50
2023/06/23 06:07:09;;;;;;;29.85;22.75;;;19.10;89.20;;;;;;5030491;28;20129;-50
2023/06/23 06:09:37;;;;;;;31.45;22.90;;;19.10;88.90;;;;;;5027628;28;20124;-47
2023/06/23 06:12:05;;;;;;;29.23;24.00;;;19.10;88.80;;;;;;5027053;28;20061;-50
2023/06/23 06:14:33;;;;;;;31.98;24.60;;;19.20;88.80;;;;;;5030157;28;20092;-47
2023/06/23 06:17:01;;;;;;;30.83;23.10;;;19.20;88.90;;;;;;5029744;28;20061;-50
2023/06/23 06:19:30;;;;;;;32.63;23.02;;;19.30;89.00;;;;;;5024838;28;20064;-49
2023/06/23 06:21:59;;;;;;;33.53;23.80;;;19.30;89.40;;;;;;5025169;28;20109;-52
2023/06/23 06:24:26;;;;;;;34.03;25.20;;;19.30;89.40;;;;;;5021343;28;20076;-47
2023/06/23 06:26:58;;;;;;;32.40;24.23;;;19.40;89.50;;;;;;5029792;28;20041;-50
2023/06/23 06:29:27;;;;;;;28.90;23.48;;;19.50;89.30;;;;;;5029089;28;20037;-47
2023/06/23 06:31:57;;;;;;;29.50;22.98;;;19.50;89.30;;;;;;5024814;28;20467;-48
2023/06/23 06:34:25;;;;;;;30.33;23.35;;;19.60;89.10;;;;;;5028068;28;20056;-47
2023/06/23 06:36:55;;;;;;;28.02;22.00;;;19.70;88.90;;;;;;5022137;28;20128;-46
2023/06/23 06:39:24;;;;;;;29.45;21.17;;;19.70;88.90;;;;;;5029098;28;20038;-49
2023/06/23 06:41:52;;;;;;;31.88;24.42;;;19.70;89.00;;;;;;5029218;28;20049;-51
2023/06/23 06:44:18;;;;;;;30.67;23.25;;;19.80;88.90;;;;;;5024511;28;20069;-51
2023/06/23 06:46:47;;;;;;;31.05;23.85;;;19.80;88.90;;;;;;5023863;28;20589;-50
2023/06/23 06:49:15;;;;;;;29.63;23.17;;;19.90;88.30;;;;;;5027697;28;20073;-52
2023/06/23 06:51:43;;;;;;;27.52;23.40;;;19.90;88.40;;;;;;5032620;28;20041;-51
2023/06/23 06:54:10;;;;;;;28.92;23.23;;;20.00;88.20;;;;;;5026411;28;20049;-46
2023/06/23 06:56:40;;;;;;;26.15;21.85;;;20.00;88.10;;;;;;5033529;28;20037;-48
2023/06/23 06:59:07;;;;;;;24.77;21.90;;;20.10;88.10;;;;;;5027784;28;20109;-45
2023/06/23 07:01:39;;;;;;;37.42;24.02;;;20.10;88.00;;;;;;5014963;28;20049;-46
2023/06/23 07:04:07;;;;;;;28.33;22.48;;;20.20;87.90;;;;;;5032650;28;20414;-51
2023/06/23 07:06:36;;;;;;;28.02;21.95;;;20.20;87.80;;;;;;5032883;28;20137;-50
2023/06/23 07:09:03;;;;;;;28.02;22.60;;;20.20;87.80;;;;;;5027430;28;20046;-47
2023/06/23 07:11:31;;;;;;;26.13;22.23;;;20.30;88.00;;;;;;5031880;28;20077;-46
2023/06/23 07:14:01;;;;;;;23.92;20.42;;;20.40;88.00;;;;;;5031819;28;20037;-49
2023/06/23 07:16:33;;;;;;;22.40;19.83;;;20.50;87.00;;;;;;5025428;28;20500;-46
2023/06/23 07:19:00;;;;;;;;;;;20.50;86.20;;;;;;5028581;28;20064;-52
2023/06/23 07:21:28;;;;;;;22.05;17.92;;;20.60;86.20;;;;;;5023276;28;19921;-47
2023/06/23 07:23:54;;;;;;;22.58;19.58;;;20.60;86.10;;;;;;5019849;28;20100;-49
2023/06/23 07:26:21;;;;;;;20.58;18.42;;;20.70;85.70;;;;;;5032449;28;20117;-50
2023/06/23 07:28:48;;;;;;;21.90;18.38;;;20.70;85.10;;;;;;5031581;28;20124;-51
2023/06/23 07:31:15;;;;;;;20.20;16.65;;;20.80;84.40;;;;;;5030544;28;20087;-46
2023/06/23 07:33:42;;;;;;;19.10;16.92;;;20.80;83.80;;;;;;5029665;28;20517;-49
2023/06/23 07:36:08;;;;;;;22.20;19.83;;;20.80;83.90;;;;;;5037200;28;20042;-50
2023/06/23 07:38:35;;;;;;;20.10;17.52;;;20.90;84.20;;;;;;5031399;28;20064;-51
2023/06/23 07:41:03;;;;;;;21.42;17.73;;;20.90;84.20;;;;;;5019490;28;20073;-53
2023/06/23 07:43:29;;;;;;;20.20;17.35;;;21.00;84.50;;;;;;5030600;28;20128;-47
2023/06/23 07:45:56;;;;;;;22.65;18.23;;;21.00;84.10;;;;;;5028253;28;20457;-51
2023/06/23 07:48:23;;;;;;;19.13;16.88;;;21.00;83.40;;;;;;5030746;28;20502;-52
2023/06/23 07:50:50;;;;;;;18.90;15.68;;;21.10;82.80;;;;;;5032746;28;20112;-48
2023/06/23 07:53:16;;;;;;;19.63;15.85;;;21.10;82.70;;;;;;5028136;28;20060;-48
2023/06/23 07:55:43;;;;;;;19.35;15.45;;;21.20;82.20;;;;;;5027226;28;20108;-51
2023/06/23 07:58:09;;;;;;;20.35;16.35;;;21.20;82.60;;;;;;5031137;28;20508;-51
2023/06/23 08:00:36;;;;;;;17.55;15.50;;;21.30;81.80;;;;;;5032104;28;20041;-50
2023/06/23 08:03:03;;;;;;;18.55;16.65;;;21.30;81.50;;;;;;5027966;28;20046;-51
2023/06/23 08:05:30;;;;;;;17.80;15.45;;;21.40;81.70;;;;;;5029378;28;20481;-47
2023/06/23 08:07:57;;;;;;;18.05;15.57;;;21.40;81.00;;;;;;5030851;28;20132;-51
2023/06/23 08:10:26;;;;;;;18.67;15.65;;;21.40;80.10;;;;;;5031110;28;20047;-49
2023/06/23 08:12:53;;;;;;;19.10;15.40;;;21.40;79.70;;;;;;5028037;28;20045;-48
2023/06/23 08:15:22;;;;;;;18.85;15.48;;;21.40;80.50;;;;;;5032034;28;20069;-48
2023/06/23 08:17:49;;;;;;;17.80;15.93;;;21.50;79.20;;;;;;5031188;28;20034;-49
2023/06/23 08:20:17;;;;;;;15.13;13.63;;;21.50;79.80;;;;;;5030407;28;20406;-48
2023/06/23 08:22:44;;;;;;;14.80;12.73;;;21.50;79.40;;;;;;5028016;28;20041;-51
2023/06/23 08:25:10;;;;;;;18.08;14.10;;;21.50;78.90;;;;;;5026994;28;20045;-50
2023/06/23 08:27:37;;;;;;;14.10;12.73;;;21.50;78.50;;;;;;5012920;28;20140;-49
2023/06/23 08:30:05;;;;;;;13.30;11.90;;;21.60;78.20;;;;;;5031477;28;20095;-49
2023/06/23 08:32:32;;;;;;;17.05;14.45;;;21.60;77.60;;;;;;5028572;28;20045;-48
2023/06/23 08:34:59;;;;;;;17.02;15.23;;;21.60;77.80;;;;;;5027351;28;20065;-51
2023/06/23 08:37:26;;;;;;;15.95;14.25;;;21.70;77.60;;;;;;5030072;28;20045;-49
2023/06/23 08:39:53;;;;;;;13.80;12.27;;;21.70;77.60;;;;;;5031188;28;20116;-50
2023/06/23 08:42:21;;;;;;;16.80;15.10;;;21.70;77.70;;;;;;5030354;28;20124;-51
2023/06/23 08:44:50;;;;;;;15.10;13.48;;;21.80;77.20;;;;;;5030183;28;20116;-53
2023/06/23 08:47:19;;;;;;;13.63;12.02;;;21.90;77.10;;;;;;5025760;28;20648;-47
2023/06/23 08:49:49;;;;;;;12.73;11.35;;;21.90;76.70;;;;;;5013017;28;20048;-49
2023/06/23 08:52:17;;;;;;;12.68;11.30;;;21.90;76.90;;;;;;5030506;28;20049;-47
2023/06/23 08:54:44;;;;;;;16.58;12.77;;;22.00;76.40;;;;;;5029140;28;20461;-47
2023/06/23 08:57:10;;;;;;;13.35;11.98;;;22.00;75.40;;;;;;5030471;28;20053;-48
2023/06/23 08:59:37;;;;;;;11.15;9.95;;;22.00;75.10;;;;;;5029954;28;20661;-50
2023/06/23 09:02:04;;;;;;;10.52;9.43;;;22.10;75.20;;;;;;5028890;28;20496;-49
2023/06/23 09:04:31;;;;;;;12.15;9.93;;;22.10;75.20;;;;;;5027087;28;20052;-48
2023/06/23 09:06:58;;;;;;;11.38;10.07;;;22.10;74.10;;;;;;5022657;28;20099;-50
2023/06/23 09:09:26;;;;;;;12.07;10.88;;;22.10;73.80;;;;;;5030201;28;20497;-50
2023/06/23 09:11:53;;;;;;;11.88;10.73;;;22.20;73.70;;;;;;5029429;28;20454;-50
2023/06/23 09:14:21;;;;;;;13.63;10.82;;;22.20;73.90;;;;;;5031864;28;20076;-47
2023/06/23 09:16:48;;;;;;;8.10;7.30;;;22.20;73.80;;;;;;5028380;28;20102;-52
2023/06/23 09:19:16;;;;;;;7.93;7.20;;;22.20;73.40;;;;;;5032996;28;20124;-53
2023/06/23 09:21:46;;;;;;;8.35;7.55;;;22.30;71.50;;;;;;5029521;28;20041;-51
2023/06/23 09:24:13;;;;;;;11.05;9.05;;;22.30;71.40;;;;;;5025436;28;20050;-47
2023/06/23 09:26:50;;;;;;;9.80;8.77;;;22.30;71.50;;;;;;5028936;28;20116;-49
2023/06/23 09:29:21;;;;;;;9.68;7.75;;;22.40;70.10;;;;;;5030731;28;20060;-49
2023/06/23 09:31:50;;;;;;;10.35;7.95;;;22.40;70.20;;;;;;5026950;28;20049;-50
2023/06/23 09:34:29;;;;;;;8.43;7.63;;;22.40;70.30;;;;;;5029583;28;20091;-52
2023/06/23 09:37:12;;;;;;;10.38;9.20;;;22.50;69.70;;;;;;5028567;28;20038;-50
2023/06/23 09:39:49;;;;;;;7.47;6.78;;;22.50;70.30;;;;;;5022344;28;20069;-48
2023/06/23 09:42:17;;;;;;;8.13;7.32;;;22.60;69.00;;;;;;5028163;28;20401;-50
2023/06/23 09:44:46;;;;;;;9.43;7.68;;;22.60;69.20;;;;;;5027822;28;20141;-50
2023/06/23 09:47:15;;;;;;;7.22;6.50;;;22.70;68.90;;;;;;5024953;28;20450;-47
2023/06/23 09:49:45;;;;;;;7.60;6.80;;;22.70;68.20;;;;;;5030396;28;20533;-49
2023/06/23 09:52:14;;;;;;;9.00;8.10;;;22.70;68.90;;;;;;5029380;28;20045;-52
2023/06/23 09:54:41;;;;;;;9.23;8.32;;;22.80;68.30;;;;;;5023453;28;20041;-51
2023/06/23 09:57:13;;;;;;;8.50;7.70;;;22.90;68.70;;;;;;5029302;28;20549;-50
2023/06/23 09:59:42;;;;;;;7.40;6.75;;;22.90;68.40;;;;;;5027494;28;20038;-51
2023/06/23 10:02:18;;;;;;;7.60;6.90;;;22.90;68.30;;;;;;5008693;28;20450;-53
2023/06/23 10:04:47;;;;;;;7.55;6.50;;;23.00;67.80;;;;;;5028103;28;20121;-52
2023/06/23 10:07:19;;;;;;;8.18;6.65;;;23.00;66.80;;;;;;5028458;28;20413;-49
2023/06/23 10:10:10;;;;;;;6.53;5.93;;;23.10;66.20;;;;;;5036352;28;20092;-49
2023/06/23 10:12:48;;;;;;;7.93;6.82;;;23.10;65.90;;;;;;5025585;28;20041;-51
2023/06/23 10:15:16;;;;;;;7.60;6.90;;;23.20;66.70;;;;;;5028183;28;20116;-48
2023/06/23 10:17:43;;;;;;;7.93;6.57;;;23.20;66.20;;;;;;5028440;28;20045;-52
2023/06/23 10:20:10;;;;;;;7.50;6.80;;;23.30;65.30;;;;;;5025460;28;20087;-51
2023/06/23 10:22:40;;;;;;;7.95;7.15;;;23.30;65.20;;;;;;5028043;28;20056;-49
2023/06/23 10:25:10;;;;;;;9.15;7.93;;;23.40;65.90;;;;;;5022653;28;20041;-50
2023/06/23 10:27:40;;;;;;;8.15;7.22;;;23.40;65.40;;;;;;5024501;28;20121;-49
2023/06/23 10:30:10;;;;;;;7.85;7.13;;;23.40;65.80;;;;;;5033476;28;20064;-49
2023/06/23 10:32:39;;;;;;;7.60;6.90;;;23.40;64.90;;;;;;5033717;28;20550;-51
2023/06/23 10:35:09;;;;;;;8.43;7.63;;;23.50;66.00;;;;;;5031598;28;20045;-49
2023/06/23 10:37:36;;;;;;;7.93;7.22;;;23.50;64.30;;;;;;5025947;28;20041;-47
2023/06/23 10:40:15;;;;;;;8.02;6.63;;;23.60;65.40;;;;;;5032108;28;20065;-47
2023/06/23 10:42:45;;;;;;;6.00;5.50;;;23.60;64.80;;;;;;5030853;28;20037;-52
2023/06/23 10:45:11;;;;;;;5.53;4.82;;;23.60;64.80;;;;;;5029237;28;20049;-51
2023/06/23 10:47:39;;;;;;;5.43;4.93;;;23.70;63.20;;;;;;5032164;28;20049;-49
2023/06/23 10:50:08;;;;;;;5.38;4.88;;;23.80;63.00;;;;;;5032413;28;20041;-50
2023/06/23 10:52:35;;;;;;;5.80;5.20;;;23.80;62.20;;;;;;5031899;28;20041;-48
2023/06/23 10:55:01;;;;;;;5.53;5.03;;;23.80;63.50;;;;;;5029833;28;20041;-51
2023/06/23 10:57:28;;;;;;;6.03;5.43;;;23.90;63.00;;;;;;5031671;28;20091;-51
2023/06/23 11:00:00;;;;;;;5.68;4.72;;;24.00;62.40;;;;;;5032415;28;20037;-48
2023/06/23 11:02:29;;;;;;;5.55;5.05;;;24.00;60.70;;;;;;5031014;28;20033;-49
2023/06/23 11:05:03;;;;;;;5.63;5.10;;;24.00;60.20;;;;;;5032326;28;20056;-48
2023/06/23 11:07:30;;;;;;;4.60;4.20;;;24.10;59.50;;;;;;5032001;28;20038;-50
2023/06/23 11:10:05;;;;;;;4.07;3.55;;;24.10;61.10;;;;;;5029660;28;20052;-49
2023/06/23 11:12:43;;;;;;;4.15;3.75;;;24.20;60.80;;;;;;5029444;28;20132;-51
2023/06/23 11:15:21;;;;;;;4.13;3.72;;;24.30;58.80;;;;;;5032512;28;20112;-48
2023/06/23 11:18:01;;;;;;;4.70;3.90;;;24.30;59.40;;;;;;5030873;28;20051;-48
2023/06/23 11:20:30;;;;;;;4.63;3.95;;;24.40;58.70;;;;;;5030525;28;20046;-47
2023/06/23 11:23:03;;;;;;;3.45;3.15;;;24.50;59.20;;;;;;5034593;28;20135;-52
2023/06/23 11:25:32;;;;;;;5.43;4.28;;;24.50;57.90;;;;;;5030924;28;20462;-50
2023/06/23 11:28:37;;;;;;;4.57;3.95;;;24.60;59.00;;;;;;5031778;28;20433;-51
2023/06/23 11:31:10;;;;;;;4.22;3.83;;;24.70;59.20;;;;;;5032382;28;20053;-52
2023/06/23 11:33:40;;;;;;;4.88;4.47;;;24.80;58.40;;;;;;5029405;28;20081;-51
2023/06/23 11:36:12;;;;;;;6.25;4.72;;;24.90;58.00;;;;;;5035756;28;20072;-51
2023/06/23 11:38:40;;;;;;;;;;;25.00;57.30;;;;;;5032091;28;20465;-52
2023/06/23 11:41:07;;;;;;;4.93;3.10;;;25.10;59.30;;;;;;5024749;28;19925;-52
2023/06/23 11:43:42;;;;;;;3.90;3.60;;;25.20;58.20;;;;;;5031174;28;20063;-51
2023/06/23 11:46:11;;;;;;;4.88;3.78;;;25.30;57.00;;;;;;5029156;28;20064;-52
2023/06/23 11:48:42;;;;;;;3.78;3.47;;;25.30;56.60;;;;;;5031058;28;20033;-49
2023/06/23 11:51:13;;;;;;;4.50;3.95;;;25.40;56.00;;;;;;5026565;28;20045;-52
2023/06/23 11:53:40;;;;;;;3.65;3.25;;;25.50;55.30;;;;;;5029609;28;20433;-51
2023/06/23 11:56:15;;;;;;;4.20;3.75;;;25.50;54.90;;;;;;5028438;28;20065;-51
2023/06/23 11:58:49;;;;;;;4.00;3.70;;;25.60;53.90;;;;;;5013798;28;20045;-49
2023/06/23 12:01:17;;;;;;;4.75;4.20;;;25.70;54.80;;;;;;5028957;28;20034;-51
2023/06/23 12:03:52;;;;;;;3.92;3.60;;;25.80;56.10;;;;;;5031113;28;20072;-51
2023/06/23 12:06:22;;;;;;;4.60;3.67;;;25.90;53.40;;;;;;5031954;28;20395;-52
2023/06/23 12:08:50;;;;;;;4.97;3.63;;;25.90;55.50;;;;;;5029836;28;20117;-51
2023/06/23 12:11:22;;;;;;;4.57;4.18;;;26.00;54.30;;;;;;5030328;28;20072;-52
2023/06/23 12:13:52;;;;;;;4.53;4.13;;;26.20;54.40;;;;;;5037711;22;20545;-49
2023/06/23 12:16:19;;;;;;;4.78;3.97;;;26.20;53.40;;;;;;5029477;28;20042;-50
2023/06/23 12:18:48;;;;;;;5.05;4.28;;;26.30;54.60;;;;;;5024939;28;20658;-50
2023/06/23 12:21:17;;;;;;;5.25;4.40;;;26.40;54.20;;;;;;5025939;28;20120;-51
2023/06/23 12:23:43;;;;;;;5.05;4.22;;;26.50;54.10;;;;;;5004826;28;20041;-53
2023/06/23 12:26:10;;;;;;;6.10;5.28;;;26.60;53.80;;;;;;5011856;28;20050;-52
2023/06/23 12:28:37;;;;;;;5.00;4.55;;;26.60;53.40;;;;;;5010841;28;20073;-51
2023/06/23 12:31:04;;;;;;;5.22;4.60;;;26.70;53.00;;;;;;4993755;28;20144;-51
2023/06/23 12:33:34;;;;;;;6.95;4.70;;;26.80;53.20;;;;;;5006063;28;20098;-51
2023/06/23 12:36:07;;;;;;;6.57;4.47;;;26.80;52.80;;;;;;5011111;28;20046;-51
2023/06/23 12:38:37;;;;;;;5.55;4.57;;;27.00;52.80;;;;;;5010714;28;20410;-52
2023/06/23 12:41:23;;;;;;;5.43;4.93;;;27.10;52.50;;;;;;5009024;28;20585;-50
2023/06/23 12:43:53;;;;;;;4.55;4.13;;;27.30;51.80;;;;;;5005901;28;20737;-49
2023/06/23 12:46:28;;;;;;;4.63;4.18;;;27.40;53.10;;;;;;5011275;28;20050;-49
2023/06/23 12:48:55;;;;;;;4.75;4.35;;;27.60;52.50;;;;;;5005139;28;20121;-50
2023/06/23 12:51:32;;;;;;;5.22;4.80;;;27.70;52.20;;;;;;5005659;28;20037;-52
2023/06/23 12:54:00;;;;;;;5.75;4.95;;;27.80;51.20;;;;;;5007159;28;20133;-51